Time;durP1;ratioP1;P1;durP2;ratioP2;P2;SDS_P1;SDS_P2;PMS_P1;PMS_P2;Temp;Humidity;BMP_temperature;BMP_pressure;BME280_temperature;BME280_humidity;BME280_pressure;Samples;Min_cycle;Max_cycle;Signal;HPM_P1;HPM_P2
2022/12/28 00:00:32;;;;;;;6.57;2.25;;;;;;;-140.72;100.00;53231.00;5129512;27;20137;-64
2022/12/28 00:02:57;;;;;;;6.43;2.85;;;;;;;-140.72;100.00;53263.47;5132936;27;20027;-65
2022/12/28 00:05:22;;;;;;;4.30;2.25;;;;;;;-140.72;100.00;53283.78;5130114;27;20340;-65
2022/12/28 00:07:48;;;;;;;7.38;2.25;;;;;;;-140.72;100.00;53304.06;5130372;27;20157;-64
2022/12/28 00:10:14;;;;;;;5.00;2.95;;;;;;;-140.72;100.00;53253.31;5130603;27;20027;-64
2022/12/28 00:12:39;;;;;;;4.05;2.47;;;;;;;-140.72;100.00;53267.53;5131380;27;20439;-64
2022/12/28 00:15:05;;;;;;;8.32;3.08;;;;;;;-140.72;100.00;53275.66;5130853;27;20130;-65
2022/12/28 00:17:30;;;;;;;5.38;3.10;;;;;;;-140.72;100.00;53255.34;5132055;27;20052;-64
2022/12/28 00:19:58;;;;;;;5.50;2.55;;;;;;;-140.72;100.00;53255.34;5131397;27;20283;-65
2022/12/28 00:22:23;;;;;;;6.10;2.65;;;;;;;-140.72;100.00;53259.41;5130939;27;20042;-64
2022/12/28 00:24:48;;;;;;;6.40;2.50;;;;;;;-140.72;100.00;53239.13;5130821;27;20061;-65
2022/12/28 00:27:14;;;;;;;5.38;2.78;;;;;;;-140.72;100.00;53263.47;5130943;27;20019;-65
2022/12/28 00:29:39;;;;;;;6.68;3.10;;;;;;;-140.72;100.00;53295.94;5123791;27;20023;-64
2022/12/28 00:32:07;;;;;;;4.75;2.53;;;;;;;-140.72;100.00;53279.72;5132378;27;20030;-66
2022/12/28 00:34:33;;;;;;;6.63;3.45;;;;;;;-140.72;100.00;53261.44;5129981;27;20076;-64
2022/12/28 00:36:59;;;;;;;6.53;3.20;;;;;;;-140.72;100.00;53300.00;5130295;27;20058;-64
2022/12/28 00:39:24;;;;;;;4.40;3.03;;;;;;;-140.72;100.00;53281.75;5131324;27;20015;-63
2022/12/28 00:41:49;;;;;;;6.68;2.95;;;;;;;-140.72;100.00;53228.97;5128936;27;21130;-64
2022/12/28 00:44:15;;;;;;;4.88;2.53;;;;;;;-140.72;100.00;53235.06;5130822;27;21210;-64
2022/12/28 00:46:40;;;;;;;7.80;3.22;;;;;;;-140.72;100.00;53267.53;5127166;27;20473;-63
2022/12/28 00:49:06;;;;;;;7.13;4.20;;;;;;;-140.72;100.00;53265.50;5131421;27;20043;-63
2022/12/28 00:51:32;;;;;;;5.75;3.70;;;;;;;-140.72;100.00;53273.63;5125630;27;20042;-64
2022/12/28 00:53:58;;;;;;;10.13;3.75;;;;;;;-140.72;100.00;53265.50;5128262;27;20023;-64
2022/12/28 00:56:23;;;;;;;9.88;3.35;;;;;;;-140.72;100.00;53306.09;5130677;27;20409;-64
2022/12/28 00:58:48;;;;;;;5.15;3.05;;;;;;;-140.72;100.00;53237.09;5130711;27;20031;-64
2022/12/28 01:01:17;;;;;;;4.78;3.65;;;;;;;-140.72;100.00;53237.09;5130771;27;20051;-65
2022/12/28 01:03:42;;;;;;;5.43;3.22;;;;;;;-140.72;100.00;53279.72;5125613;27;20480;-65
2022/12/28 01:06:09;;;;;;;5.60;3.75;;;;;;;-140.72;100.00;53239.13;5129544;27;20019;-64
2022/12/28 01:08:36;;;;;;;6.55;4.15;;;;;;;-140.72;100.00;53271.59;5130646;27;20015;-64
2022/12/28 01:11:09;;;;;;;5.32;3.72;;;;;;;-140.72;100.00;53295.94;5122535;27;20021;-65
2022/12/28 01:13:35;;;;;;;4.70;2.92;;;;;;;-140.72;100.00;53304.06;5129894;27;20029;-64
2022/12/28 01:16:15;;;;;;;7.53;3.63;;;;;;;-140.72;100.00;53247.25;5127928;27;20039;-65
2022/12/28 01:18:42;;;;;;;5.95;3.53;;;;;;;-140.72;100.00;53259.41;5127365;27;20023;-63
2022/12/28 01:21:12;;;;;;;4.28;2.80;;;;;;;-140.72;100.00;53263.47;5130136;27;20106;-64
2022/12/28 01:23:38;;;;;;;;;;;;;;;-140.72;100.00;53214.78;5131172;27;20019;-64
2022/12/28 01:26:04;;;;;;;4.25;3.13;;;;;;;-140.72;100.00;53267.53;5129623;27;19976;-66
2022/12/28 01:28:29;;;;;;;4.72;3.28;;;;;;;-140.72;100.00;53206.66;5128369;27;20326;-65
2022/12/28 01:30:54;;;;;;;5.70;3.55;;;;;;;-140.72;100.00;53275.66;5129690;27;20023;-65
2022/12/28 01:33:20;;;;;;;3.78;2.67;;;;;;;-140.72;100.00;53237.09;5129162;27;20054;-64
2022/12/28 01:35:45;;;;;;;7.47;3.35;;;;;;;-140.72;100.00;53216.78;5128231;27;20343;-65
2022/12/28 01:38:13;;;;;;;3.92;2.97;;;;;;;-140.72;100.00;53259.41;5131262;27;20051;-65
2022/12/28 01:40:42;;;;;;;5.82;3.83;;;;;;;-140.72;100.00;53208.69;5128699;27;20490;-65
2022/12/28 01:43:14;;;;;;;3.72;2.63;;;;;;;-140.72;100.00;53281.75;5129300;27;20026;-66
2022/12/28 01:45:46;;;;;;;8.13;3.47;;;;;;;-140.72;100.00;53247.25;5126304;27;20467;-65
2022/12/28 01:48:21;;;;;;;4.90;3.47;;;;;;;-140.72;100.00;53226.94;5130798;27;20023;-64
2022/12/28 01:50:48;;;;;;;3.10;2.03;;;;;;;-140.72;100.00;53202.59;5130018;27;20425;-66
2022/12/28 01:53:17;;;;;;;4.47;3.05;;;;;;;-140.72;100.00;53275.66;5128130;27;20359;-64
2022/12/28 01:55:42;;;;;;;5.80;4.13;;;;;;;-140.72;100.00;53257.38;5125330;27;20019;-65
2022/12/28 01:58:16;;;;;;;5.15;3.33;;;;;;;-140.72;100.00;53251.31;5127563;27;20060;-65
2022/12/28 02:00:41;;;;;;;5.13;3.08;;;;;;;-140.72;100.00;53275.66;5126390;27;20102;-66
2022/12/28 02:03:18;;;;;;;5.35;2.72;;;;;;;-140.72;100.00;53247.25;5127464;27;20094;-65
2022/12/28 02:05:51;;;;;;;6.82;3.25;;;;;;;-140.72;100.00;53291.88;5127075;27;20015;-65
2022/12/28 02:08:28;;;;;;;5.60;3.17;;;;;;;-140.72;100.00;53243.19;5127391;27;20414;-66
2022/12/28 02:10:55;;;;;;;5.18;3.50;;;;;;;-140.72;100.00;53235.06;5129985;27;20050;-64
2022/12/28 02:13:22;;;;;;;4.75;3.35;;;;;;;-140.72;100.00;53261.44;5128508;27;20064;-64
2022/12/28 02:15:48;;;;;;;3.65;2.50;;;;;;;-140.72;100.00;53233.03;5127267;27;20015;-65
2022/12/28 02:18:16;;;;;;;3.70;2.58;;;;;;;-140.72;100.00;53216.78;5130296;27;20050;-66
2022/12/28 02:21:09;;;;;;;10.73;3.63;;;;;;;-140.72;100.00;53239.13;5129821;27;20031;-65
2022/12/28 02:24:02;;;;;;;5.35;3.85;;;;;;;-140.72;100.00;53251.31;5121385;27;20030;-65
2022/12/28 02:26:46;;;;;;;5.18;3.03;;;;;;;-140.72;100.00;53251.31;5125108;27;20478;-65
2022/12/28 02:29:26;;;;;;;8.82;4.15;;;;;;;-140.72;100.00;53253.31;5124136;27;20039;-65
2022/12/28 02:32:09;;;;;;;5.78;3.55;;;;;;;-140.72;100.00;53235.06;5130000;27;20027;-64
2022/12/28 02:34:47;;;;;;;5.47;3.25;;;;;;;-140.72;100.00;53216.78;5130097;27;20102;-66
2022/12/28 02:37:27;;;;;;;4.63;2.72;;;;;;;-140.72;100.00;53214.78;5122980;27;20480;-65
2022/12/28 02:40:20;;;;;;;7.55;3.70;;;;;;;-140.72;100.00;53267.53;5130133;27;20068;-66
2022/12/28 02:42:47;;;;;;;3.70;2.67;;;;;;;-140.72;100.00;53226.94;5118101;27;20425;-66
2022/12/28 02:51:21;;;;;;;4.43;3.10;;;;;;;-140.72;100.00;53190.41;5123340;27;20509;-65
2022/12/28 02:53:48;;;;;;;3.95;2.90;;;;;;;-140.72;100.00;53228.97;5123207;27;20036;-66
2022/12/28 02:56:37;;;;;;;4.13;3.13;;;;;;;-140.72;100.00;53216.78;5130119;27;20084;-65
2022/12/28 02:59:14;;;;;;;;;;;;;;;-140.72;100.00;53202.59;5124126;27;20069;-65
2022/12/28 03:02:06;;;;;;;4.55;2.58;;;;;;;-140.72;100.00;53277.69;5117111;27;20343;-64
2022/12/28 03:04:52;;;;;;;4.78;3.28;;;;;;;-140.72;100.00;53216.78;5123426;27;20380;-65
2022/12/28 03:10:43;;;;;;;8.18;3.60;;;;;;;-140.72;100.00;53243.19;5130101;27;20045;-65
2022/12/28 03:16:05;;;;;;;9.52;3.42;;;;;;;-140.72;100.00;53218.81;5129700;27;20050;-65
2022/12/28 03:32:25;;;;;;;4.18;2.20;;;;;;;-140.72;100.00;53247.25;5115392;27;20176;-65
2022/12/28 03:34:51;;;;;;;6.32;3.15;;;;;;;-140.72;100.00;53216.78;5127112;27;20134;-65
2022/12/28 03:37:24;;;;;;;3.92;2.92;;;;;;;-140.72;100.00;53206.66;5115393;27;20102;-64
2022/12/28 03:39:52;;;;;;;3.92;2.70;;;;;;;-140.72;100.00;53237.09;5112812;27;20052;-64
2022/12/28 03:45:23;;;;;;;4.80;2.90;;;;;;;-140.72;100.00;53249.28;5126314;28;20030;-66
2022/12/28 03:47:51;;;;;;;5.65;2.40;;;;;;;-140.72;100.00;53233.03;5124508;28;20392;-64
2022/12/28 03:50:20;;;;;;;6.30;2.40;;;;;;;-140.72;100.00;53237.09;5126732;28;20116;-66
2022/12/28 03:52:45;;;;;;;8.27;2.70;;;;;;;-140.72;100.00;53273.63;5128355;28;20035;-65
2022/12/28 03:55:13;;;;;;;2.70;2.17;;;;;;;-140.72;100.00;53233.03;5124881;28;20443;-65
2022/12/28 03:57:40;;;;;;;4.22;2.58;;;;;;;-140.72;100.00;53184.31;5127673;28;20020;-64
2022/12/28 04:00:08;;;;;;;5.18;2.05;;;;;;;-140.72;100.00;53222.88;5120273;28;20117;-63
2022/12/28 04:02:34;;;;;;;2.53;1.80;;;;;;;-140.72;100.00;53208.69;5122372;28;20054;-64
2022/12/28 04:04:59;;;;;;;4.05;2.15;;;;;;;-140.72;100.00;53212.75;5124045;28;20360;-64
2022/12/28 04:07:24;;;;;;;2.70;1.80;;;;;;;-140.72;100.00;53233.03;5116658;28;20027;-65
2022/12/28 04:09:50;;;;;;;3.42;2.28;;;;;;;-140.72;100.00;53224.91;5120440;28;20493;-66
2022/12/28 04:12:15;;;;;;;2.35;1.60;;;;;;;-140.72;100.00;53231.00;5125490;28;20024;-65
2022/12/28 04:14:40;;;;;;;4.65;2.08;;;;;;;-140.72;100.00;53212.75;5124032;28;20447;-65
2022/12/28 04:17:06;;;;;;;3.65;1.60;;;;;;;-140.72;100.00;53249.28;5125842;28;20027;-64
2022/12/28 04:19:31;;;;;;;2.65;2.00;;;;;;;-140.72;100.00;53198.53;5123735;28;20020;-67
2022/12/28 04:21:56;;;;;;;3.35;2.00;;;;;;;-140.72;100.00;53224.91;5126860;28;20576;-65
2022/12/28 04:24:22;;;;;;;2.08;1.58;;;;;;;-140.72;100.00;53222.88;5124812;28;20050;-66
2022/12/28 04:26:47;;;;;;;7.50;1.77;;;;;;;-140.72;100.00;53214.78;5127867;28;20035;-65
2022/12/28 04:29:13;;;;;;;3.55;2.22;;;;;;;-140.72;100.00;53247.25;5120865;27;20057;-65
2022/12/28 04:31:38;;;;;;;3.15;2.15;;;;;;;-140.72;100.00;53210.72;5132458;27;20525;-65
2022/12/28 04:34:05;;;;;;;3.55;2.47;;;;;;;-140.72;100.00;53214.78;5132713;27;20031;-66
2022/12/28 04:36:30;;;;;;;3.17;1.92;;;;;;;-140.72;100.00;53212.75;5128737;27;20318;-65
2022/12/28 04:38:57;;;;;;;2.72;1.75;;;;;;;-140.72;100.00;53235.06;5133089;27;20139;-66
2022/12/28 04:41:23;;;;;;;5.63;2.20;;;;;;;-140.72;100.00;53218.81;5125135;27;20022;-66
2022/12/28 04:43:48;;;;;;;3.00;1.98;;;;;;;-140.72;100.00;53178.22;5121218;27;20020;-67
2022/12/28 04:46:15;;;;;;;4.57;1.92;;;;;;;-140.72;100.00;53190.41;5126914;27;20019;-66
2022/12/28 04:48:41;;;;;;;5.47;2.10;;;;;;;-140.72;100.00;53259.41;5121973;27;20039;-64
2022/12/28 04:51:09;;;;;;;4.43;2.28;;;;;;;-140.72;100.00;53182.28;5132819;27;20038;-64
2022/12/28 04:53:38;;;;;;;6.82;2.00;;;;;;;-140.72;100.00;53190.41;5132483;27;20409;-65
2022/12/28 04:56:05;;;;;;;2.33;1.85;;;;;;;-140.72;100.00;53279.72;5126888;27;20371;-66
2022/12/28 04:58:30;;;;;;;3.85;2.00;;;;;;;-140.72;100.00;53192.44;5119419;27;20114;-65
2022/12/28 05:01:07;;;;;;;3.13;1.55;;;;;;;-140.72;100.00;53212.75;5123379;27;20367;-66
2022/12/28 05:03:34;;;;;;;3.72;2.42;;;;;;;-140.72;100.00;53235.06;5120489;27;20023;-65
2022/12/28 05:06:06;;;;;;;5.28;2.00;;;;;;;-140.72;100.00;53206.66;5127821;27;20047;-65
2022/12/28 05:08:33;;;;;;;2.85;2.03;;;;;;;-140.72;100.00;53224.91;5128432;27;20432;-64
2022/12/28 05:11:00;;;;;;;2.38;1.80;;;;;;;-140.72;100.00;53228.97;5129426;27;20019;-65
2022/12/28 05:13:26;;;;;;;2.15;1.33;;;;;;;-140.72;100.00;53206.66;5129460;27;20027;-65
2022/12/28 05:15:51;;;;;;;2.83;1.80;;;;;;;-140.72;100.00;53239.13;5131402;27;20478;-66
2022/12/28 05:18:17;;;;;;;2.30;1.75;;;;;;;-140.72;100.00;53198.53;5130492;27;20506;-66
2022/12/28 05:20:42;;;;;;;2.85;2.30;;;;;;;-140.72;100.00;53218.81;5129827;27;20026;-64
2022/12/28 05:23:08;;;;;;;2.63;1.83;;;;;;;-140.72;100.00;53212.75;5129987;27;20064;-64
2022/12/28 05:25:33;;;;;;;3.92;2.13;;;;;;;-140.72;100.00;53261.44;5130683;27;20543;-64
2022/12/28 05:27:58;;;;;;;4.18;2.72;;;;;;;-140.72;100.00;53245.22;5131575;27;20046;-65
2022/12/28 05:30:24;;;;;;;3.58;2.00;;;;;;;-140.72;100.00;53210.72;5130029;27;20019;-65
2022/12/28 05:32:49;;;;;;;3.00;1.95;;;;;;;-140.72;100.00;53228.97;5129094;27;20023;-66
2022/12/28 05:35:14;;;;;;;4.47;2.15;;;;;;;-140.72;100.00;53214.78;5129569;27;20088;-65
2022/12/28 05:37:40;;;;;;;3.17;2.08;;;;;;;-140.72;100.00;53210.72;5129462;27;20026;-65
2022/12/28 05:40:06;;;;;;;3.72;1.90;;;;;;;-140.72;100.00;53212.75;5128380;27;20023;-66
2022/12/28 05:42:31;;;;;;;2.17;1.60;;;;;;;-140.72;100.00;53196.50;5130963;27;20366;-67
2022/12/28 05:44:56;;;;;;;4.53;1.92;;;;;;;-140.72;100.00;53237.09;5128202;27;20069;-65
2022/12/28 05:47:23;;;;;;;5.75;1.70;;;;;;;-140.72;100.00;53216.78;5131767;27;20046;-65
2022/12/28 05:49:49;;;;;;;3.50;2.45;;;;;;;-140.72;100.00;53206.66;5130461;27;20055;-66
2022/12/28 05:52:14;;;;;;;2.88;2.28;;;;;;;-140.72;100.00;53214.78;5129584;27;20046;-65
2022/12/28 05:54:42;;;;;;;3.65;2.78;;;;;;;-140.72;100.00;53206.66;5131350;27;20096;-64
2022/12/28 05:57:07;;;;;;;2.35;1.85;;;;;;;-140.72;100.00;53194.47;5131597;27;20362;-65
2022/12/28 05:59:33;;;;;;;4.45;1.95;;;;;;;-140.72;100.00;53188.38;5124399;27;20024;-65
2022/12/28 06:01:58;;;;;;;4.00;2.08;;;;;;;-140.72;100.00;53222.88;5127176;27;20035;-66
2022/12/28 06:04:24;;;;;;;3.15;1.52;;;;;;;-140.72;100.00;53188.38;5131093;27;20412;-65
2022/12/28 06:06:49;;;;;;;2.13;1.60;;;;;;;-140.72;100.00;53247.25;5126826;27;20467;-66
2022/12/28 06:09:15;;;;;;;4.68;1.67;;;;;;;-140.72;100.00;53182.28;5126645;27;20908;-66
2022/12/28 06:11:41;;;;;;;2.35;1.58;;;;;;;-140.72;100.00;53186.34;5121513;27;20027;-65
2022/12/28 06:14:06;;;;;;;3.70;1.83;;;;;;;-140.72;100.00;53190.41;5127054;27;20065;-64
2022/12/28 06:16:35;;;;;;;3.33;2.03;;;;;;;-140.72;100.00;53194.47;5131891;27;20065;-66
2022/12/28 06:19:06;;;;;;;4.35;1.98;;;;;;;-140.72;100.00;53218.81;5131762;27;20110;-66
2022/12/28 06:21:33;;;;;;;2.78;2.00;;;;;;;-140.72;100.00;53216.78;5130815;27;20027;-65
2022/12/28 06:23:59;;;;;;;2.22;1.63;;;;;;;-140.72;100.00;53198.53;5127132;27;20042;-65
2022/12/28 06:26:28;;;;;;;5.25;1.40;;;;;;;-140.72;100.00;53210.72;5129326;27;20096;-64
2022/12/28 06:28:54;;;;;;;3.78;2.10;;;;;;;-140.72;100.00;53214.78;5121657;27;20015;-64
2022/12/28 06:31:22;;;;;;;4.35;1.85;;;;;;;-140.72;100.00;53206.66;5127055;27;20020;-66
2022/12/28 06:33:49;;;;;;;2.67;1.50;;;;;;;-140.72;100.00;53166.06;5130599;27;20019;-66
2022/12/28 06:36:20;;;;;;;2.65;1.77;;;;;;;-140.72;100.00;53192.44;5131260;27;20026;-66
2022/12/28 06:38:48;;;;;;;2.92;1.80;;;;;;;-140.72;100.00;53218.81;5129740;27;20366;-65
2022/12/28 06:41:15;;;;;;;2.03;1.23;;;;;;;-140.72;100.00;53143.72;5128443;27;20046;-64
2022/12/28 06:43:41;;;;;;;2.40;1.58;;;;;;;-140.72;100.00;53186.34;5127587;27;20455;-65
2022/12/28 06:46:07;;;;;;;2.00;1.58;;;;;;;-140.72;100.00;53204.63;5126161;27;20112;-65
2022/12/28 06:48:34;;;;;;;2.95;1.90;;;;;;;-140.72;100.00;53206.66;5125570;27;20039;-65
2022/12/28 06:51:02;;;;;;;3.30;2.17;;;;;;;-140.72;100.00;53178.22;5127561;27;20026;-67
2022/12/28 06:53:33;;;;;;;2.95;1.70;;;;;;;-140.72;100.00;53206.66;5127120;27;20339;-65
2022/12/28 06:56:01;;;;;;;2.60;2.00;;;;;;;-140.72;100.00;53245.22;5127965;27;20023;-67
2022/12/28 06:58:28;;;;;;;3.08;1.77;;;;;;;-140.72;100.00;53178.22;5129817;27;20433;-65
2022/12/28 07:00:54;;;;;;;2.60;1.33;;;;;;;-140.72;100.00;53245.22;5126669;27;20023;-65
2022/12/28 07:03:21;;;;;;;2.35;1.63;;;;;;;-140.72;100.00;53212.75;5128140;27;20374;-65
2022/12/28 07:05:47;;;;;;;3.40;1.98;;;;;;;-140.72;100.00;53188.38;5126956;27;20051;-65
2022/12/28 07:08:12;;;;;;;1.80;1.05;;;;;;;-140.72;100.00;53202.59;5126073;27;20058;-63
2022/12/28 07:10:37;;;;;;;2.25;1.42;;;;;;;-140.72;100.00;53218.81;5126929;27;20045;-65
2022/12/28 07:13:04;;;;;;;1.85;1.30;;;;;;;-140.72;100.00;53224.91;5128499;27;20069;-65
2022/12/28 07:15:30;;;;;;;1.45;0.80;;;;;;;-140.72;100.00;53202.59;5109099;27;20214;-67
2022/12/28 07:17:57;;;;;;;2.47;1.75;;;;;;;-140.72;100.00;53214.78;5125829;27;20029;-66
2022/12/28 07:20:22;;;;;;;2.45;1.48;;;;;;;-140.72;100.00;53210.72;5124088;27;20485;-65
2022/12/28 07:22:48;;;;;;;3.15;1.80;;;;;;;-140.72;100.00;53198.53;5125673;27;20023;-67
2022/12/28 07:25:13;;;;;;;3.35;1.67;;;;;;;-140.72;100.00;53220.84;5126096;27;20015;-66
2022/12/28 07:27:38;;;;;;;4.90;2.10;;;;;;;-140.72;100.00;53210.72;5127954;27;20023;-66
2022/12/28 07:30:04;;;;;;;2.80;1.90;;;;;;;-140.72;100.00;53202.59;5126522;27;20022;-68
2022/12/28 07:32:30;;;;;;;2.38;1.50;;;;;;;-140.72;100.00;53226.94;5126671;27;20110;-68
2022/12/28 07:34:55;;;;;;;5.80;1.85;;;;;;;-140.72;100.00;53198.53;5123102;27;20032;-67
2022/12/28 07:37:20;;;;;;;3.55;2.38;;;;;;;-140.72;100.00;53166.06;5128432;27;20098;-65
2022/12/28 07:39:45;;;;;;;5.95;2.28;;;;;;;-140.72;100.00;53190.41;5127084;27;20111;-66
2022/12/28 07:42:11;;;;;;;2.42;1.42;;;;;;;-140.72;100.00;53208.69;5116577;28;20032;-65
2022/12/28 07:44:40;;;;;;;6.40;2.53;;;;;;;-140.72;100.00;53164.03;5126666;28;20030;-65
2022/12/28 07:47:06;;;;;;;2.33;1.40;;;;;;;-140.72;100.00;53198.53;5127991;28;20033;-64
2022/12/28 07:49:32;;;;;;;3.22;1.92;;;;;;;-140.72;100.00;53164.03;5126762;28;20373;-66
2022/12/28 07:51:57;;;;;;;2.55;1.73;;;;;;;-140.72;100.00;53166.06;5128643;28;20048;-68
2022/12/28 07:54:22;;;;;;;4.13;1.52;;;;;;;-140.72;100.00;53239.13;5115973;28;20015;-69
2022/12/28 07:56:48;;;;;;;2.50;1.63;;;;;;;-140.72;100.00;53178.22;5119243;28;20063;-63
2022/12/28 07:59:13;;;;;;;2.50;1.60;;;;;;;-140.72;100.00;53214.78;5122877;28;20351;-67
2022/12/28 08:01:38;;;;;;;3.83;1.77;;;;;;;-140.72;100.00;53228.97;5127685;28;20027;-65
2022/12/28 08:04:08;;;;;;;2.05;1.33;;;;;;;-140.72;100.00;53186.34;5121036;27;20039;-66
2022/12/28 08:06:36;;;;;;;3.08;1.73;;;;;;;-140.72;100.00;53184.31;5129478;27;20374;-66
2022/12/28 08:09:03;;;;;;;4.63;1.30;;;;;;;-140.72;100.00;53241.16;5129656;27;20066;-68
2022/12/28 08:11:31;;;;;;;2.38;1.25;;;;;;;-140.72;100.00;53166.06;5132048;27;20054;-66
2022/12/28 08:13:58;;;;;;;3.28;1.85;;;;;;;-140.72;100.00;53202.59;5127075;27;20040;-67
2022/12/28 08:16:25;;;;;;;8.13;1.38;;;;;;;-140.72;100.00;53174.19;5131340;27;20054;-67
2022/12/28 08:18:51;;;;;;;3.67;1.83;;;;;;;-140.72;100.00;53184.31;5129121;27;20058;-67
2022/12/28 08:21:20;;;;;;;1.20;0.65;;;;;;;-140.72;100.00;53212.75;5122929;27;20057;-66
2022/12/28 08:23:48;;;;;;;3.70;1.00;;;;;;;-140.72;100.00;53190.41;5129486;27;20114;-67
2022/12/28 08:26:18;;;;;;;1.83;1.08;;;;;;;-140.72;100.00;53186.34;5130716;27;20035;-66
2022/12/28 08:28:45;;;;;;;1.40;1.17;;;;;;;-140.72;100.00;53172.16;5124259;27;20099;-66
2022/12/28 08:31:20;;;;;;;3.60;1.23;;;;;;;-140.72;100.00;53206.66;5123350;27;20027;-66
2022/12/28 08:33:46;;;;;;;1.83;1.00;;;;;;;-140.72;100.00;53170.13;5124994;27;20272;-65
2022/12/28 08:36:12;;;;;;;3.83;1.92;;;;;;;-140.72;100.00;53192.44;5125713;27;20023;-66
2022/12/28 08:38:39;;;;;;;3.38;1.73;;;;;;;-140.72;100.00;53172.16;5126252;27;20026;-67
2022/12/28 08:41:07;;;;;;;1.73;1.05;;;;;;;-140.72;100.00;53196.50;5129938;27;20272;-66
2022/12/28 08:43:33;;;;;;;2.55;1.52;;;;;;;-140.72;100.00;53202.59;5126358;27;20060;-65
2022/12/28 08:46:04;;;;;;;3.28;1.35;;;;;;;-140.72;100.00;53251.31;5122555;27;20023;-68
2022/12/28 08:48:30;;;;;;;3.67;1.05;;;;;;;-140.72;100.00;53208.69;5131106;27;20043;-65
2022/12/28 08:51:01;;;;;;;2.28;1.27;;;;;;;-140.72;100.00;53216.78;5126766;27;20042;-65
2022/12/28 08:53:26;;;;;;;7.97;1.88;;;;;;;-140.72;100.00;53198.53;5127207;27;20525;-65
2022/12/28 08:55:52;;;;;;;5.15;1.83;;;;;;;-140.72;100.00;53190.41;5123886;27;20038;-65
2022/12/28 08:58:20;;;;;;;2.10;1.40;;;;;;;-140.72;100.00;53192.44;5117775;27;20462;-67
2022/12/28 09:00:46;;;;;;;2.88;1.60;;;;;;;-140.72;100.00;53186.34;5127739;27;20034;-65
2022/12/28 09:03:11;;;;;;;4.10;1.92;;;;;;;-140.72;100.00;53210.72;5117398;27;20067;-68
2022/12/28 09:05:38;;;;;;;4.97;1.88;;;;;;;-140.72;100.00;53198.53;5126564;27;20051;-65
2022/12/28 09:08:03;;;;;;;5.32;1.90;;;;;;;-140.72;100.00;53226.94;5130528;27;20319;-65
2022/12/28 09:10:29;;;;;;;1.70;0.82;;;;;;;-140.72;100.00;53188.38;5127184;27;20077;-65
2022/12/28 09:12:54;;;;;;;3.10;1.42;;;;;;;-140.72;100.00;53196.50;5124128;27;20079;-69
2022/12/28 09:15:23;;;;;;;3.95;1.60;;;;;;;-140.72;100.00;53190.41;5109546;27;20034;-64
2022/12/28 09:17:48;;;;;;;13.70;1.90;;;;;;;-140.72;100.00;53196.50;5127875;27;20019;-67
2022/12/28 09:20:14;;;;;;;2.90;1.50;;;;;;;-140.72;100.00;53216.78;5120448;27;20015;-66
2022/12/28 09:22:39;;;;;;;4.20;1.65;;;;;;;-140.72;100.00;53170.13;5123717;27;20109;-66
2022/12/28 09:25:05;;;;;;;5.18;1.42;;;;;;;-140.72;100.00;53190.41;5124373;27;20351;-65
2022/12/28 09:27:30;;;;;;;2.63;1.35;;;;;;;-140.72;100.00;53182.28;5116839;27;20024;-66
2022/12/28 09:29:56;;;;;;;3.10;1.48;;;;;;;-140.72;100.00;53196.50;5120856;27;20052;-66
2022/12/28 09:32:21;;;;;;;5.72;1.60;;;;;;;-140.72;100.00;53218.81;5129884;27;20110;-66
2022/12/28 09:34:46;;;;;;;2.13;1.40;;;;;;;-140.72;100.00;53188.38;5124173;27;20015;-65
2022/12/28 09:37:12;;;;;;;9.10;1.88;;;;;;;-140.72;100.00;53186.34;5130373;27;20071;-65
2022/12/28 09:39:37;;;;;;;1.50;0.73;;;;;;;-140.72;100.00;53194.47;5119834;27;20054;-65
2022/12/28 09:42:20;;;;;;;4.30;1.20;;;;;;;-140.72;100.00;53157.94;5131468;27;20023;-65
2022/12/28 09:45:04;;;;;;;2.95;1.58;;;;;;;-140.72;100.00;53182.28;5127891;27;20051;-65
2022/12/28 09:47:51;;;;;;;8.98;2.00;;;;;;;-140.72;100.00;53168.09;5125586;27;20463;-65
2022/12/28 09:50:23;;;;;;;4.50;1.30;;;;;;;-140.72;100.00;53212.75;5121998;27;20035;-66
2022/12/28 09:53:19;;;;;;;4.45;2.05;;;;;;;-140.72;100.00;53149.81;5124275;27;20110;-64
2022/12/28 09:56:04;;;;;;;3.53;1.48;;;;;;;-140.72;100.00;53180.25;5100071;27;20042;-65
2022/12/28 09:58:33;;;;;;;3.88;1.35;;;;;;;-140.72;100.00;53210.72;5121493;27;20035;-65
2022/12/28 10:01:01;;;;;;;4.38;1.63;;;;;;;-140.72;100.00;53180.25;5111717;27;20027;-67
2022/12/28 10:03:34;;;;;;;5.07;1.77;;;;;;;-140.72;100.00;53172.16;5118015;27;20408;-65
2022/12/28 10:06:00;;;;;;;4.32;1.38;;;;;;;-140.72;100.00;53178.22;5124095;27;20102;-64
2022/12/28 10:08:27;;;;;;;3.97;1.10;;;;;;;-140.72;100.00;53192.44;5130736;27;20107;-63
2022/12/28 10:10:58;;;;;;;5.38;1.45;;;;;;;-140.72;100.00;53170.13;5125839;27;20100;-66
2022/12/28 10:13:27;;;;;;;5.80;1.33;;;;;;;-140.72;100.00;53224.91;5121515;27;20051;-65
2022/12/28 10:15:54;;;;;;;1.23;0.82;;;;;;;-140.72;100.00;53157.94;5127853;27;20543;-65
2022/12/28 10:18:27;;;;;;;5.95;1.60;;;;;;;-140.72;100.00;53198.53;5121033;27;20023;-65
2022/12/28 10:20:54;;;;;;;1.23;0.98;;;;;;;-140.72;100.00;53162.00;5117894;27;20125;-64
2022/12/28 10:23:24;;;;;;;1.60;0.95;;;;;;;-140.72;100.00;53172.16;5121901;27;20019;-64
2022/12/28 10:25:52;;;;;;;3.15;1.73;;;;;;;-140.72;100.00;53228.97;5118469;27;20042;-65
2022/12/28 10:28:20;;;;;;;3.80;1.17;;;;;;;-140.72;100.00;53172.16;5119715;27;20085;-66
2022/12/28 10:31:10;;;;;;;5.47;1.23;;;;;;;-140.72;100.00;53214.78;5127939;27;20052;-64
2022/12/28 10:33:39;;;;;;;2.60;1.75;;;;;;;-140.72;100.00;53174.19;5125549;27;20019;-65
2022/12/28 10:36:09;;;;;;;6.40;1.42;;;;;;;-140.72;100.00;53226.94;5122903;27;20077;-67
2022/12/28 10:38:35;;;;;;;2.40;1.48;;;;;;;-140.72;100.00;53186.34;5125267;27;20165;-64
2022/12/28 10:41:09;;;;;;;4.05;1.55;;;;;;;-140.72;100.00;53184.31;5127532;27;20211;-65
2022/12/28 10:43:39;;;;;;;2.90;1.77;;;;;;;-140.72;100.00;53174.19;5127464;27;20039;-65
2022/12/28 10:46:12;;;;;;;4.30;2.15;;;;;;;-140.72;100.00;53200.56;5128600;27;20034;-64
2022/12/28 10:48:38;;;;;;;2.70;1.58;;;;;;;-140.72;100.00;53214.78;5126875;27;20474;-66
2022/12/28 10:51:13;;;;;;;3.45;2.15;;;;;;;-140.72;100.00;53198.53;5116734;27;20069;-64
2022/12/28 10:53:38;;;;;;;2.00;1.33;;;;;;;-140.72;100.00;53210.72;5124058;27;20023;-66
2022/12/28 10:56:12;;;;;;;6.25;2.42;;;;;;;-140.72;100.00;53194.47;5126318;27;20110;-65
2022/12/28 10:58:43;;;;;;;5.32;1.98;;;;;;;-140.72;100.00;53222.88;5125219;27;20471;-65
2022/12/28 11:01:11;;;;;;;2.75;1.67;;;;;;;-140.72;100.00;53216.78;5123884;27;20358;-66
2022/12/28 11:03:43;;;;;;;1.88;1.50;;;;;;;-140.72;100.00;53210.72;5128153;27;20515;-63
2022/12/28 11:06:11;;;;;;;2.15;1.60;;;;;;;-140.72;100.00;53188.38;5127302;27;20015;-65
2022/12/28 11:08:38;;;;;;;3.40;1.67;;;;;;;-140.72;100.00;53235.06;5126276;27;20406;-63
2022/12/28 11:11:04;;;;;;;4.90;1.50;;;;;;;-140.72;100.00;53210.72;5123374;27;20102;-64
2022/12/28 11:13:30;;;;;;;4.78;2.50;;;;;;;-140.72;100.00;53202.59;5126870;27;20050;-65
2022/12/28 11:15:55;;;;;;;4.13;1.98;;;;;;;-140.72;100.00;53198.53;5124003;27;20425;-64
2022/12/28 11:18:21;;;;;;;5.28;2.50;;;;;;;-140.72;100.00;53178.22;5125414;27;20451;-64
2022/12/28 11:20:48;;;;;;;7.80;2.58;;;;;;;-140.72;100.00;53214.78;5124378;27;20023;-64
2022/12/28 11:23:18;;;;;;;2.45;1.58;;;;;;;-140.72;100.00;53206.66;5126143;27;20015;-66
2022/12/28 11:25:43;;;;;;;2.05;1.52;;;;;;;-140.72;100.00;53224.91;5125314;27;20026;-65
2022/12/28 11:28:19;;;;;;;5.25;1.80;;;;;;;-140.72;100.00;53208.69;5122765;27;20019;-65
2022/12/28 11:30:46;;;;;;;5.97;2.15;;;;;;;-140.72;100.00;53220.84;5119378;27;20425;-65
2022/12/28 11:33:36;;;;;;;1.45;1.08;;;;;;;-140.72;100.00;53192.44;5126864;27;20197;-64
2022/12/28 11:36:01;;;;;;;5.55;2.90;;;;;;;-140.72;100.00;53194.47;5123170;27;20362;-66
2022/12/28 11:38:55;;;;;;;3.67;1.58;;;;;;;-140.72;100.00;53172.16;5127149;27;20317;-64
2022/12/28 11:41:23;;;;;;;2.50;1.45;;;;;;;-140.72;100.00;53202.59;5115074;27;20062;-65
2022/12/28 11:43:56;;;;;;;7.28;1.35;;;;;;;-140.72;100.00;53214.78;5123245;28;20023;-66